createdAt,value
2022-08-20T00:02:15.914Z,70.00
2022-08-20T00:04:48.055Z,69.00
2022-08-20T00:07:20.326Z,67.87
2022-08-20T00:09:48.440Z,73.43
2022-08-20T00:12:19.260Z,64.23
2022-08-20T00:14:50.868Z,64.40
2022-08-20T00:17:18.886Z,65.27
2022-08-20T00:19:46.846Z,64.30
2022-08-20T00:22:24.482Z,62.80
2022-08-20T00:24:54.364Z,57.03
2022-08-20T00:27:22.553Z,61.87
2022-08-20T00:29:50.809Z,65.27
2022-08-20T00:32:20.314Z,64.33
2022-08-20T00:34:52.363Z,68.53
2022-08-20T00:37:20.552Z,61.60
2022-08-20T00:39:48.834Z,62.00
2022-08-20T00:42:18.534Z,60.57
2022-08-20T00:44:48.535Z,62.00
2022-08-20T00:47:24.466Z,64.87
2022-08-20T00:49:52.275Z,59.33
2022-08-20T00:52:23.116Z,63.20
2022-08-20T00:54:56.398Z,61.30
2022-08-20T00:57:43.884Z,59.67
2022-08-20T01:00:32.438Z,58.90
2022-08-20T01:03:01.834Z,60.87
2022-08-20T01:05:30.348Z,62.47
2022-08-20T01:07:59.429Z,62.80
2022-08-20T01:10:34.825Z,60.13
2022-08-20T01:13:11.867Z,60.57
2022-08-20T01:15:44.177Z,58.53
2022-08-20T01:18:25.790Z,60.07
2022-08-20T01:21:03.601Z,60.27
2022-08-20T01:23:39.416Z,58.97
2022-08-20T01:26:12.814Z,53.70
2022-08-20T01:28:44.362Z,55.77
2022-08-20T01:31:14.824Z,59.47
2022-08-20T01:33:44.145Z,63.03
2022-08-20T01:36:16.686Z,59.70
2022-08-20T01:38:54.342Z,62.87
2022-08-20T01:42:07.957Z,64.73
2022-08-20T01:44:39.830Z,60.77
2022-08-20T01:47:16.050Z,66.37
2022-08-20T01:49:49.949Z,71.13
2022-08-20T01:52:30.120Z,68.30
2022-08-20T01:55:01.751Z,65.57
2022-08-20T01:57:36.215Z,75.17
2022-08-20T02:00:08.190Z,75.53
2022-08-20T02:02:39.414Z,72.87
2022-08-20T02:05:08.618Z,75.23
2022-08-20T02:07:37.761Z,78.07
2022-08-20T02:10:10.527Z,108.30
2022-08-20T02:12:40.050Z,78.43
2022-08-20T02:15:12.148Z,75.87
2022-08-20T02:17:44.947Z,77.53
2022-08-20T02:20:18.440Z,73.03
2022-08-20T02:22:50.390Z,69.30
2022-08-20T02:25:20.316Z,67.73
2022-08-20T02:27:53.509Z,71.13
2022-08-20T02:30:28.363Z,72.10
2022-08-20T02:32:57.890Z,68.40
2022-08-20T02:35:26.813Z,76.43
2022-08-20T02:37:56.067Z,65.10
2022-08-20T02:40:31.200Z,88.33
2022-08-20T02:43:14.838Z,59.37
2022-08-20T02:45:45.013Z,53.17
2022-08-20T02:48:23.772Z,54.20
2022-08-20T02:50:55.264Z,52.87
2022-08-20T02:53:24.689Z,54.93
2022-08-20T02:56:05.617Z,55.87
2022-08-20T02:58:35.376Z,63.13
2022-08-20T03:01:08.567Z,54.73
2022-08-20T03:03:36.736Z,47.23
2022-08-20T03:06:04.963Z,46.63
2022-08-20T03:08:34.009Z,51.07
2022-08-20T03:11:01.958Z,44.07
2022-08-20T03:13:30.170Z,64.60
2022-08-20T03:16:01.015Z,56.30
2022-08-20T03:18:33.871Z,43.10
2022-08-20T03:21:02.916Z,40.57
2022-08-20T03:23:31.249Z,45.87
2022-08-20T03:26:00.327Z,47.10
2022-08-20T03:28:29.938Z,43.43
2022-08-20T03:31:17.143Z,44.00
2022-08-20T03:33:56.789Z,39.20
2022-08-20T03:36:28.761Z,39.53
2022-08-20T03:39:01.498Z,42.50
2022-08-20T03:41:29.795Z,48.83
2022-08-20T03:43:58.081Z,47.00
2022-08-20T03:46:26.792Z,44.50
2022-08-20T03:49:00.357Z,43.67
2022-08-20T03:51:29.993Z,44.57
2022-08-20T03:53:59.041Z,41.40
2022-08-20T03:56:27.079Z,39.23
2022-08-20T03:59:11.126Z,47.63
2022-08-20T04:01:46.252Z,40.00
2022-08-20T04:04:17.062Z,39.67
2022-08-20T04:06:48.849Z,43.17
2022-08-20T04:09:17.284Z,45.57
2022-08-20T04:11:45.670Z,39.73
2022-08-20T04:14:18.452Z,45.87
2022-08-20T04:16:49.109Z,40.23
2022-08-20T04:19:18.695Z,38.90
2022-08-20T04:21:48.615Z,41.23
2022-08-20T04:24:26.608Z,42.20
2022-08-20T04:27:03.276Z,40.37
2022-08-20T04:29:32.661Z,41.77
2022-08-20T04:32:05.710Z,39.47
2022-08-20T04:34:35.992Z,39.33
2022-08-20T04:37:05.203Z,43.53
2022-08-20T04:39:33.878Z,41.73
2022-08-20T04:42:02.128Z,39.60
2022-08-20T04:44:30.223Z,41.07
2022-08-20T04:46:59.548Z,44.03
2022-08-20T04:49:28.049Z,43.17
2022-08-20T04:51:57.820Z,46.97
2022-08-20T04:54:25.863Z,48.13
2022-08-20T04:57:02.023Z,49.57
2022-08-20T04:59:36.421Z,45.23
2022-08-20T05:02:05.099Z,45.67
2022-08-20T05:04:33.063Z,55.57
2022-08-20T05:07:03.358Z,58.37
2022-08-20T05:09:43.625Z,57.60
2022-08-20T05:12:12.952Z,59.80
2022-08-20T05:14:40.747Z,64.27
2022-08-20T05:17:09.872Z,65.87
2022-08-20T05:19:38.955Z,66.30
2022-08-20T05:22:09.257Z,64.23
2022-08-20T05:24:37.446Z,68.30
2022-08-20T05:27:05.926Z,67.93
2022-08-20T05:29:34.197Z,67.77
2022-08-20T05:32:09.367Z,68.33
2022-08-20T05:34:38.956Z,68.17
2022-08-20T05:37:08.397Z,57.27
2022-08-20T05:39:56.438Z,54.23
2022-08-20T05:42:55.758Z,56.67
2022-08-20T05:45:25.270Z,56.07
2022-08-20T05:47:56.587Z,52.73
2022-08-20T05:50:35.808Z,54.93
2022-08-20T05:53:29.012Z,54.23
2022-08-20T05:55:56.949Z,52.33
2022-08-20T05:58:42.960Z,58.50
2022-08-20T06:01:11.231Z,52.80
2022-08-20T06:03:57.336Z,52.93
2022-08-20T06:06:45.318Z,54.07
2022-08-20T06:09:16.267Z,51.40
2022-08-20T06:11:55.755Z,50.20
2022-08-20T06:14:39.782Z,52.90
2022-08-20T06:17:10.230Z,54.00
2022-08-20T06:19:44.193Z,59.90
2022-08-20T06:22:19.601Z,66.80
2022-08-20T06:24:54.755Z,58.77
2022-08-20T06:27:23.108Z,66.53
2022-08-20T06:29:52.063Z,75.73
2022-08-20T06:32:32.022Z,72.63
2022-08-20T06:35:01.950Z,59.20
2022-08-20T06:37:31.890Z,69.70
2022-08-20T06:40:07.305Z,74.33
2022-08-20T06:42:36.391Z,71.50
2022-08-20T06:45:06.214Z,71.23
2022-08-20T06:47:35.157Z,82.87
2022-08-20T06:50:03.518Z,89.30
2022-08-20T06:52:51.736Z,93.47
2022-08-20T06:55:23.776Z,101.03
2022-08-20T06:57:59.632Z,77.90
2022-08-20T07:00:33.370Z,143.10
2022-08-20T07:03:03.388Z,92.23
2022-08-20T07:05:33.687Z,622.40
2022-08-20T07:08:02.728Z,115.53
2022-08-20T07:10:32.769Z,103.57
2022-08-20T07:13:00.942Z,96.43
2022-08-20T07:15:29.037Z,103.60
2022-08-20T07:18:01.680Z,106.20
2022-08-20T07:20:30.362Z,222.90
2022-08-20T07:23:01.356Z,112.50
2022-08-20T07:25:35.332Z,138.70
2022-08-20T07:28:05.011Z,113.67
2022-08-20T07:30:59.387Z,117.60
2022-08-20T07:33:41.234Z,96.60
2022-08-20T07:36:10.850Z,98.50
2022-08-20T07:38:39.440Z,222.33
2022-08-20T07:41:15.234Z,110.23
2022-08-20T07:43:45.812Z,99.00
2022-08-20T07:46:18.070Z,116.30
2022-08-20T07:48:51.425Z,144.47
2022-08-20T07:51:22.483Z,162.23
2022-08-20T07:53:52.007Z,119.37
2022-08-20T07:56:24.844Z,120.10
2022-08-20T07:58:56.342Z,133.10
2022-08-20T08:01:28.674Z,167.93
2022-08-20T08:04:00.763Z,103.87
2022-08-20T08:06:31.496Z,128.53
2022-08-20T08:09:04.272Z,113.27
2022-08-20T08:11:37.527Z,97.17
2022-08-20T08:14:07.671Z,112.23
2022-08-20T08:16:35.750Z,105.00
2022-08-20T08:19:07.456Z,124.40
2022-08-20T08:21:35.280Z,117.57
2022-08-20T08:24:03.215Z,197.83
2022-08-20T08:26:31.069Z,169.03
2022-08-20T08:29:00.515Z,142.97
2022-08-20T08:31:31.098Z,128.73
2022-08-20T08:33:59.146Z,156.80
2022-08-20T08:36:27.337Z,115.73
2022-08-20T08:38:56.865Z,141.43
2022-08-20T08:41:32.449Z,103.40
2022-08-20T08:44:07.911Z,106.40
2022-08-20T08:46:42.079Z,172.20
2022-08-20T08:49:13.895Z,101.97
2022-08-20T08:51:45.176Z,158.63
2022-08-20T08:54:17.482Z,162.33
2022-08-20T08:56:49.737Z,95.63
2022-08-20T08:59:21.848Z,76.23
2022-08-20T09:01:56.976Z,53.57
2022-08-20T09:04:31.901Z,52.20
2022-08-20T09:07:04.685Z,69.17
2022-08-20T09:09:36.638Z,75.43
2022-08-20T09:12:07.296Z,129.83
2022-08-20T09:14:37.056Z,58.57
2022-08-20T09:17:06.622Z,56.30
2022-08-20T09:19:34.507Z,52.53
2022-08-20T09:22:08.913Z,77.70
2022-08-20T09:24:36.798Z,87.80
2022-08-20T09:27:08.935Z,83.40
2022-08-20T09:29:38.735Z,92.40
2022-08-20T09:32:08.117Z,165.27
2022-08-20T09:34:40.183Z,59.67
2022-08-20T09:37:08.378Z,51.93
2022-08-20T09:39:38.132Z,75.23
2022-08-20T09:42:12.273Z,87.20
2022-08-20T09:44:42.412Z,35.57
2022-08-20T09:47:10.836Z,30.10
2022-08-20T09:49:39.379Z,35.03
2022-08-20T09:52:09.306Z,35.50
2022-08-20T09:54:38.561Z,32.50
2022-08-20T09:57:09.422Z,35.23
2022-08-20T09:59:38.262Z,35.13
2022-08-20T10:02:07.507Z,31.77
2022-08-20T10:04:35.394Z,30.40
2022-08-20T10:07:08.479Z,42.20
2022-08-20T10:09:36.619Z,38.63
2022-08-20T10:12:05.038Z,56.70
2022-08-20T10:14:33.360Z,166.80
2022-08-20T10:17:05.779Z,150.37
2022-08-20T10:19:35.321Z,100.23
2022-08-20T10:22:04.386Z,75.93
2022-08-20T10:24:33.348Z,39.87
2022-08-20T10:27:02.492Z,38.73
2022-08-20T10:29:32.098Z,41.20
2022-08-20T10:32:12.237Z,38.40
2022-08-20T10:34:41.756Z,38.10
2022-08-20T10:37:10.278Z,41.23
2022-08-20T10:39:38.475Z,53.07
2022-08-20T10:42:06.699Z,46.27
2022-08-20T10:44:34.482Z,60.97
2022-08-20T10:47:15.131Z,94.53
2022-08-20T10:49:45.621Z,42.03
2022-08-20T10:52:13.546Z,40.03
2022-08-20T10:54:42.350Z,41.23
2022-08-20T10:57:14.098Z,40.67
2022-08-20T10:59:42.470Z,38.97
2022-08-20T11:02:10.397Z,42.43
2022-08-20T11:04:38.539Z,41.77
2022-08-20T11:07:20.965Z,43.47
2022-08-20T11:09:50.390Z,45.77
2022-08-20T11:12:20.202Z,54.17
2022-08-20T11:14:50.120Z,65.63
2022-08-20T11:17:23.512Z,45.70
2022-08-20T11:19:51.719Z,63.00
2022-08-20T11:22:21.261Z,62.97
2022-08-20T11:24:49.131Z,59.60
2022-08-20T11:27:24.551Z,59.53
2022-08-20T11:29:52.979Z,48.57
2022-08-20T11:32:21.477Z,63.87
2022-08-20T11:34:49.164Z,65.23
2022-08-20T11:37:18.506Z,76.03
2022-08-20T11:39:47.615Z,73.25
2022-08-20T11:42:15.732Z,78.45
2022-08-20T11:44:43.993Z,93.47
2022-08-20T11:47:22.741Z,72.72
2022-08-20T11:49:59.077Z,46.35
2022-08-20T11:52:48.010Z,61.38
2022-08-20T11:55:19.362Z,68.82
2022-08-20T11:57:50.238Z,76.65
2022-08-20T12:00:32.961Z,92.63
2022-08-20T12:03:02.642Z,93.90
2022-08-20T12:05:35.853Z,90.50
2022-08-20T12:08:28.208Z,109.53
2022-08-20T12:10:54.704Z,101.03
2022-08-20T12:13:48.166Z,164.65
2022-08-20T12:16:21.963Z,143.18
2022-08-20T12:18:52.696Z,178.05
2022-08-20T12:21:48.357Z,179.18
2022-08-20T12:24:18.560Z,164.43
2022-08-20T12:26:48.434Z,202.80
2022-08-20T12:29:16.621Z,188.52
2022-08-20T12:31:47.499Z,199.77
2022-08-20T12:34:17.732Z,174.02
2022-08-20T12:36:50.028Z,247.23
2022-08-20T12:39:40.036Z,187.05
2022-08-20T12:42:33.284Z,196.80
2022-08-20T12:45:02.152Z,162.45
2022-08-20T12:50:31.287Z,266.33
2022-08-20T12:53:00.050Z,275.42
2022-08-20T12:55:37.337Z,250.38
2022-08-20T12:58:33.147Z,283.05
2022-08-20T13:01:01.476Z,227.82
2022-08-20T13:03:43.147Z,224.02
2022-08-20T13:06:34.637Z,261.17
2022-08-20T13:09:02.719Z,280.60
2022-08-20T13:11:30.566Z,242.05
2022-08-20T13:13:59.841Z,268.45
2022-08-20T13:16:27.992Z,235.32
2022-08-20T13:18:55.767Z,253.85
2022-08-20T13:21:24.069Z,278.55
2022-08-20T13:23:51.927Z,255.27
2022-08-20T13:26:20.231Z,287.27
2022-08-20T13:28:47.944Z,295.73
2022-08-20T13:31:16.992Z,300.95
2022-08-20T13:33:46.246Z,309.25
2022-08-20T13:36:14.303Z,292.75
2022-08-20T13:38:42.041Z,290.60
2022-08-20T13:41:09.724Z,276.08
2022-08-20T13:43:37.415Z,233.45
2022-08-20T13:46:06.506Z,195.07
2022-08-20T13:48:35.623Z,192.77
2022-08-20T13:51:03.336Z,214.82
2022-08-20T13:53:34.694Z,220.73
2022-08-20T13:56:02.581Z,270.63
2022-08-20T13:58:30.231Z,260.58
2022-08-20T14:00:58.019Z,231.52
2022-08-20T14:03:25.918Z,246.60
2022-08-20T14:05:56.913Z,226.88
2022-08-20T14:08:25.474Z,232.25
2022-08-20T14:10:53.251Z,200.77
2022-08-20T14:13:23.193Z,180.50
2022-08-20T14:15:51.346Z,150.40
2022-08-20T14:18:19.358Z,147.70
2022-08-20T14:20:47.528Z,127.75
2022-08-20T14:23:16.795Z,129.88
2022-08-20T14:25:47.439Z,124.97
2022-08-20T14:28:18.252Z,119.47
2022-08-20T14:30:52.599Z,97.30
2022-08-20T14:33:21.244Z,98.75
2022-08-20T14:35:49.205Z,102.15
2022-08-20T14:38:18.430Z,102.20
2022-08-20T14:40:47.521Z,101.05
2022-08-20T14:43:15.314Z,101.32
2022-08-20T14:45:43.274Z,106.90
2022-08-20T14:48:11.237Z,108.30
2022-08-20T14:50:39.537Z,84.53
2022-08-20T14:53:08.035Z,82.50
2022-08-20T14:55:38.643Z,68.90
2022-08-20T14:58:10.568Z,72.17
2022-08-20T15:00:38.955Z,67.13
2022-08-20T15:03:06.999Z,66.30
2022-08-20T15:05:39.305Z,59.10
2022-08-20T15:08:08.302Z,48.87
2022-08-20T15:10:40.418Z,47.63
2022-08-20T15:13:11.247Z,47.47
2022-08-20T15:15:42.048Z,42.63
2022-08-20T15:18:10.863Z,42.63
2022-08-20T15:20:39.323Z,44.03
2022-08-20T15:23:10.582Z,41.57
2022-08-20T15:25:39.795Z,36.93
2022-08-20T15:28:10.546Z,42.50
2022-08-20T15:30:40.639Z,40.63
2022-08-20T15:33:08.557Z,37.63
2022-08-20T15:35:36.647Z,33.90
2022-08-20T15:38:04.449Z,36.50
2022-08-20T15:40:34.088Z,33.67
2022-08-20T15:43:05.095Z,35.90
2022-08-20T15:45:33.234Z,37.60
2022-08-20T15:48:08.606Z,35.23
2022-08-20T15:50:51.265Z,37.80
2022-08-20T15:53:24.163Z,38.47
2022-08-20T15:56:00.248Z,36.93
2022-08-20T15:58:38.031Z,38.37
2022-08-20T16:01:25.102Z,42.90
2022-08-20T16:04:21.346Z,37.73
2022-08-20T16:06:51.718Z,41.37
2022-08-20T16:09:39.198Z,40.60
2022-08-20T16:12:11.276Z,38.87
2022-08-20T16:14:43.802Z,52.03
2022-08-20T16:17:16.265Z,203.90
2022-08-20T16:19:51.364Z,439.83
2022-08-20T16:22:21.365Z,999.90
2022-08-20T16:24:50.168Z,587.17
2022-08-20T16:27:29.040Z,999.90
2022-08-20T16:30:04.309Z,999.90
2022-08-20T16:32:42.393Z,649.77
2022-08-20T16:35:32.999Z,738.73
2022-08-20T16:38:13.279Z,999.90
2022-08-20T16:40:53.050Z,766.20
2022-08-20T16:43:24.919Z,794.43
2022-08-20T16:46:00.869Z,681.33
2022-08-20T16:48:39.116Z,750.10
2022-08-20T16:51:13.654Z,618.30
2022-08-20T16:53:41.464Z,489.23
2022-08-20T16:56:10.371Z,497.00
2022-08-20T16:58:38.852Z,554.77
2022-08-20T17:01:13.409Z,504.27
2022-08-20T17:03:50.976Z,458.13
2022-08-20T17:06:29.395Z,340.33
2022-08-20T17:08:58.371Z,273.17
2022-08-20T17:11:32.782Z,335.03
2022-08-20T17:14:11.572Z,314.30
2022-08-20T17:16:45.411Z,256.60
2022-08-20T17:19:20.864Z,394.70
2022-08-20T17:21:50.841Z,420.67
2022-08-20T17:24:26.725Z,435.63
2022-08-20T17:27:00.999Z,329.13
2022-08-20T17:29:32.041Z,274.27
2022-08-20T17:32:12.329Z,318.60
2022-08-20T17:34:46.321Z,380.30
2022-08-20T17:37:25.924Z,315.03
2022-08-20T17:39:57.164Z,270.07
2022-08-20T17:42:28.061Z,256.27
2022-08-20T17:45:02.276Z,325.63
2022-08-20T17:47:36.548Z,310.47
2022-08-20T17:50:12.571Z,301.87
2022-08-20T17:52:46.895Z,317.30
2022-08-20T17:55:15.316Z,325.93
2022-08-20T17:57:49.731Z,338.07
2022-08-20T18:00:25.249Z,311.47
2022-08-20T18:02:59.760Z,261.47
2022-08-20T18:05:30.907Z,329.03
2022-08-20T18:08:25.201Z,287.27
2022-08-20T18:11:03.723Z,266.30
2022-08-20T18:14:06.578Z,265.90
2022-08-20T18:16:43.775Z,255.03
2022-08-20T18:19:16.723Z,262.83
2022-08-20T18:22:13.449Z,307.70
2022-08-20T18:24:50.509Z,298.33
2022-08-20T18:27:23.181Z,372.13
2022-08-20T18:29:58.262Z,354.87
2022-08-20T18:32:31.462Z,328.10
2022-08-20T18:35:14.698Z,320.33
2022-08-20T18:37:43.299Z,237.80
2022-08-20T18:40:19.312Z,254.10
2022-08-20T18:42:50.155Z,242.83
2022-08-20T18:45:29.476Z,252.97
2022-08-20T18:47:57.644Z,234.13
2022-08-20T18:50:33.221Z,263.93
2022-08-20T18:53:12.357Z,275.87
2022-08-20T18:55:42.958Z,296.10
2022-08-20T18:58:13.502Z,312.83
2022-08-20T19:00:47.062Z,270.60
2022-08-20T19:03:26.208Z,213.10
2022-08-20T19:06:10.068Z,213.60
2022-08-20T19:08:48.743Z,242.37
2022-08-20T19:11:37.987Z,198.07
2022-08-20T19:14:24.356Z,187.73
2022-08-20T19:16:57.651Z,204.40
2022-08-20T19:19:32.210Z,251.37
2022-08-20T19:22:03.851Z,282.67
2022-08-20T19:24:35.080Z,213.63
2022-08-20T19:27:07.340Z,242.67
2022-08-20T19:29:41.036Z,224.40
2022-08-20T19:32:10.697Z,218.10
2022-08-20T19:34:39.824Z,174.73
2022-08-20T19:37:27.924Z,200.00
2022-08-20T19:40:08.824Z,169.90
2022-08-20T19:42:44.237Z,256.93
2022-08-20T19:45:19.842Z,237.30
2022-08-20T19:47:54.298Z,202.57
2022-08-20T19:50:30.133Z,226.73
2022-08-20T19:53:11.494Z,227.77
2022-08-20T19:55:41.387Z,248.60
2022-08-20T19:58:26.092Z,284.13
2022-08-20T20:00:55.646Z,250.13
2022-08-20T20:03:25.666Z,186.63
2022-08-20T20:05:55.743Z,173.20
2022-08-20T20:08:29.302Z,159.17
2022-08-20T20:11:00.665Z,220.97
2022-08-20T20:13:35.669Z,190.70
2022-08-20T20:16:10.732Z,208.17
2022-08-20T20:18:42.147Z,203.63
2022-08-20T20:21:16.364Z,198.57
2022-08-20T20:23:54.820Z,168.60
2022-08-20T20:26:32.562Z,128.83
2022-08-20T20:29:06.494Z,138.93
2022-08-20T20:31:52.153Z,150.57
2022-08-20T20:34:26.832Z,162.63
2022-08-20T20:37:05.272Z,170.77
2022-08-20T20:39:37.990Z,201.43
2022-08-20T20:42:13.135Z,162.27
2022-08-20T20:44:45.714Z,165.10
2022-08-20T20:47:29.001Z,208.27
2022-08-20T20:50:00.676Z,190.30
2022-08-20T20:52:31.814Z,180.13
2022-08-20T20:55:16.481Z,202.83
2022-08-20T20:57:44.502Z,184.13
2022-08-20T21:00:17.446Z,245.43
2022-08-20T21:02:45.961Z,249.57
2022-08-20T21:05:19.038Z,243.83
2022-08-20T21:07:50.543Z,224.13
2022-08-20T21:10:27.223Z,216.93
2022-08-20T21:12:55.240Z,192.57
2022-08-20T21:15:26.042Z,210.43
2022-08-20T21:17:55.605Z,184.27
2022-08-20T21:20:24.045Z,196.47
2022-08-20T21:22:52.202Z,196.60
2022-08-20T21:25:21.687Z,178.60
2022-08-20T21:27:51.452Z,169.47
2022-08-20T21:30:21.343Z,160.80
2022-08-20T21:32:49.682Z,140.53
2022-08-20T21:35:18.653Z,161.13
2022-08-20T21:37:46.388Z,169.53
2022-08-20T21:40:15.467Z,160.90
2022-08-20T21:42:55.805Z,133.53
2022-08-20T21:45:28.487Z,152.17
2022-08-20T21:47:57.476Z,234.93
2022-08-20T21:50:26.259Z,269.03
2022-08-20T21:52:59.093Z,166.07
2022-08-20T21:55:27.835Z,224.67
2022-08-20T21:57:57.910Z,215.27
2022-08-20T22:00:50.169Z,188.87
2022-08-20T22:03:20.213Z,127.20
2022-08-20T22:06:02.013Z,138.13
2022-08-20T22:08:33.237Z,139.13
2022-08-20T22:11:03.931Z,116.93
2022-08-20T22:13:35.997Z,120.17
2022-08-20T22:16:06.939Z,116.03
2022-08-20T22:18:35.044Z,113.23
2022-08-20T22:21:03.818Z,108.53
2022-08-20T22:23:32.641Z,124.43
2022-08-20T22:26:01.137Z,109.40
2022-08-20T22:28:29.100Z,121.97
2022-08-20T22:31:00.297Z,114.73
2022-08-20T22:33:29.238Z,94.57
2022-08-20T22:35:58.673Z,92.27
2022-08-20T22:38:27.794Z,83.00
2022-08-20T22:40:55.844Z,85.57
2022-08-20T22:43:29.312Z,85.90
2022-08-20T22:46:01.941Z,104.80
2022-08-20T22:48:32.580Z,104.37
2022-08-20T22:51:00.810Z,97.43
2022-08-20T22:53:30.220Z,85.87
2022-08-20T22:56:19.774Z,90.07
2022-08-20T22:58:51.278Z,74.90
2022-08-20T23:01:21.726Z,73.30
2022-08-20T23:03:49.987Z,86.47
2022-08-20T23:06:18.745Z,82.83
2022-08-20T23:08:46.973Z,82.30
2022-08-20T23:11:47.340Z,81.13
2022-08-20T23:14:15.172Z,74.07
2022-08-20T23:16:47.233Z,82.37
2022-08-20T23:19:23.500Z,77.23
2022-08-20T23:21:52.188Z,68.97
2022-08-20T23:24:20.792Z,81.60
2022-08-20T23:26:52.411Z,94.43
2022-08-20T23:29:25.437Z,70.47
2022-08-20T23:31:56.718Z,76.03
2022-08-20T23:34:25.754Z,68.53
2022-08-20T23:37:19.258Z,60.57
2022-08-20T23:39:47.748Z,54.93
2022-08-20T23:42:16.014Z,59.53
2022-08-20T23:44:46.079Z,51.50
2022-08-20T23:47:24.370Z,128.83
2022-08-20T23:49:54.195Z,56.07
2022-08-20T23:52:22.228Z,60.33
2022-08-20T23:54:50.515Z,58.13
2022-08-20T23:57:21.124Z,49.60
2022-08-20T23:59:53.018Z,55.27
